Douglas, Wyoming
Current Conditions -  °F | °C
As of 2:53 PM on Monday 20 Oct 2014 (Local Time) from KDGW Reporting Station
Clear Clear  
Wind Chill: 78°   Ceiling: Unl
Heat Index: 78°   Visibility: 10mi
Dew Point: 34°   Wind: 6mph
Humidity: 20%   Direction: 280°W
Pressure: 30.01"   Gusts: NA
Location:  42.76°N, 105.38°W
Report Text: KDGW 202053Z AUTO 28005KT 10SM CLR 26/01 A3001 RMK AO2 SLP123 T02560011 56021
Loading
Personal Weather Stations






























Interactive Weather Map
Tropical Storm Tracking
New forecast layout! Learn more

10-Day Weather Forecast

Advertisements
Track Severe Weather on mobile